Jeffersonville, Georgia
Current Conditions -  °F | °C
As of 2:58 AM on Friday 28 Nov 2014 (Local Time) from KWRB Reporting Station
Clear Clear  
Wind Chill: 23°   Ceiling: Unl
Heat Index: 30°   Visibility: 10mi
Dew Point: 26°   Wind: 7mph
Humidity: 84%   Direction: 340°NNW
Pressure: 30.35"   Gusts: NA
Location:  32.69°N, 83.35°W
Report Text: KWRB 280758Z AUTO 34006KT 10SM CLR M01/M03 A3035 RMK AO2 SLP282 T10101034
Loading
Personal Weather Stations






























Interactive Weather Map New forecast layout! Learn more

10-Day Weather Forecast

Advertisements
Track Severe Weather on mobile